Time;durP1;ratioP1;P1;durP2;ratioP2;P2;SDS_P1;SDS_P2;PMS_P1;PMS_P2;Temp;Humidity;BMP_temperature;BMP_pressure;BME280_temperature;BME280_humidity;BME280_pressure;Samples;Min_cycle;Max_cycle;Signal;HPM_P1;HPM_P2
2021/04/25 00:00:03;;;;;;;5.68;2.40;;;6.40;71.20;;;;;;5155812;27;20034;-70
2021/04/25 00:02:29;;;;;;;4.05;1.90;;;6.30;71.20;;;;;;5155793;27;20054;-70
2021/04/25 00:04:55;;;;;;;5.95;1.95;;;6.30;70.90;;;;;;5155541;27;20035;-71
2021/04/25 00:07:21;;;;;;;6.05;2.28;;;6.30;71.20;;;;;;5154826;27;20049;-71
2021/04/25 00:09:46;;;;;;;4.05;1.75;;;6.30;71.40;;;;;;5155576;27;20091;-70
2021/04/25 00:12:12;;;;;;;6.32;1.70;;;6.20;71.60;;;;;;5155268;27;20079;-71
2021/04/25 00:14:38;;;;;;;4.15;1.65;;;6.20;71.50;;;;;;5154755;27;20046;-71
2021/04/25 00:17:04;;;;;;;7.00;1.65;;;6.20;71.40;;;;;;5155346;27;20474;-71
2021/04/25 00:19:29;;;;;;;6.85;2.40;;;6.20;71.60;;;;;;5155491;27;20081;-70
2021/04/25 00:21:55;;;;;;;8.65;1.92;;;6.30;71.90;;;;;;5155212;27;20035;-71
2021/04/25 00:24:21;;;;;;;4.07;1.60;;;6.30;72.20;;;;;;5154832;27;20401;-71
2021/04/25 00:26:47;;;;;;;10.02;1.92;;;6.30;72.30;;;;;;5154750;27;20046;-71
2021/04/25 00:29:13;;;;;;;5.28;2.40;;;6.30;72.40;;;;;;5154866;27;20042;-71
2021/04/25 00:31:39;;;;;;;11.07;2.20;;;6.30;72.60;;;;;;5155079;27;20035;-71
2021/04/25 00:34:05;;;;;;;6.50;1.83;;;6.30;72.60;;;;;;5154989;27;20046;-71
2021/04/25 00:36:33;;;;;;;6.68;1.80;;;6.20;72.70;;;;;;5153230;27;20031;-70
2021/04/25 00:38:58;;;;;;;7.05;1.50;;;6.20;72.90;;;;;;5155408;27;20074;-71
2021/04/25 00:41:24;;;;;;;7.25;1.88;;;6.30;72.90;;;;;;5155282;27;20074;-71
2021/04/25 00:43:52;;;;;;;5.30;1.83;;;6.30;73.30;;;;;;5155411;27;20039;-71
2021/04/25 00:46:18;;;;;;;8.52;1.95;;;6.20;73.50;;;;;;5154289;27;20052;-71
2021/04/25 00:48:44;;;;;;;8.27;2.00;;;6.20;73.80;;;;;;5154788;27;20035;-70
2021/04/25 00:51:13;;;;;;;9.98;2.20;;;6.20;73.90;;;;;;5155131;27;20053;-71
2021/04/25 00:53:42;;;;;;;10.30;2.10;;;6.20;74.20;;;;;;5155271;27;20030;-71
2021/04/25 00:56:10;;;;;;;7.15;2.50;;;6.20;74.20;;;;;;5157098;27;20108;-70
2021/04/25 00:58:36;;;;;;;8.68;2.20;;;6.20;74.90;;;;;;5159330;27;20383;-70
2021/04/25 01:01:05;;;;;;;6.57;2.92;;;6.20;74.50;;;;;;5159088;27;20039;-70
2021/04/25 01:03:31;;;;;;;11.38;3.00;;;6.30;74.40;;;;;;5158865;27;20400;-70
2021/04/25 01:05:56;;;;;;;5.38;2.55;;;6.20;74.00;;;;;;5158403;27;20031;-70
2021/04/25 01:08:22;;;;;;;5.97;2.28;;;6.20;74.00;;;;;;5158878;27;20030;-70
2021/04/25 01:10:48;;;;;;;8.90;2.50;;;6.20;72.60;;;;;;5158598;27;20114;-70
2021/04/25 01:13:13;;;;;;;8.98;2.85;;;6.20;72.50;;;;;;5159041;27;20039;-71
2021/04/25 01:15:39;;;;;;;7.30;2.20;;;6.20;72.70;;;;;;5158529;27;20035;-71
2021/04/25 01:18:05;;;;;;;12.20;3.55;;;6.20;73.00;;;;;;5158511;27;20545;-71
2021/04/25 01:20:31;;;;;;;5.28;1.88;;;6.20;73.00;;;;;;5158277;27;20096;-71
2021/04/25 01:22:57;;;;;;;8.07;2.35;;;6.20;73.40;;;;;;5158790;27;20466;-71
2021/04/25 01:25:23;;;;;;;9.23;2.40;;;6.30;73.10;;;;;;5158336;27;20478;-70
2021/04/25 01:27:50;;;;;;;10.38;3.03;;;6.30;72.90;;;;;;5156990;27;20038;-70
2021/04/25 01:30:19;;;;;;;6.78;2.28;;;6.20;72.90;;;;;;5158233;27;20096;-71
2021/04/25 01:32:45;;;;;;;8.18;2.42;;;6.20;73.20;;;;;;5159101;27;20038;-71
2021/04/25 01:35:15;;;;;;;12.77;2.90;;;6.20;73.40;;;;;;5157735;27;20473;-70
2021/04/25 01:37:42;;;;;;;9.45;2.10;;;6.20;73.60;;;;;;5158625;27;20042;-70
2021/04/25 01:40:08;;;;;;;5.97;2.00;;;6.20;74.20;;;;;;5157927;27;20121;-71
2021/04/25 01:42:34;;;;;;;6.22;1.83;;;6.30;73.90;;;;;;5158308;27;20060;-71
2021/04/25 01:45:00;;;;;;;10.13;2.40;;;6.20;73.70;;;;;;5157630;27;20038;-71
2021/04/25 01:47:26;;;;;;;6.97;2.15;;;6.20;73.80;;;;;;5158187;27;20034;-71
2021/04/25 01:49:52;;;;;;;9.38;1.90;;;6.20;73.90;;;;;;5158446;27;20401;-70
2021/04/25 01:52:18;;;;;;;4.20;1.40;;;6.20;73.90;;;;;;5158208;27;20035;-70
2021/04/25 01:54:43;;;;;;;7.05;1.88;;;6.20;74.10;;;;;;5157936;27;20045;-70
2021/04/25 01:57:09;;;;;;;7.72;1.48;;;6.20;74.20;;;;;;5157593;27;20343;-70
2021/04/25 01:59:35;;;;;;;11.68;1.48;;;6.20;74.30;;;;;;5157737;27;20042;-70
2021/04/25 02:02:01;;;;;;;8.63;1.55;;;6.20;74.60;;;;;;5157924;27;20038;-70
2021/04/25 02:04:27;;;;;;;9.07;1.77;;;6.20;75.10;;;;;;5157535;27;20045;-71
2021/04/25 02:06:53;;;;;;;7.75;1.83;;;6.30;75.70;;;;;;5155127;27;20039;-71
2021/04/25 02:09:19;;;;;;;10.32;1.60;;;6.30;75.20;;;;;;5158064;27;20458;-70
2021/04/25 02:11:46;;;;;;;4.75;2.25;;;6.20;75.00;;;;;;5157618;27;20063;-70
2021/04/25 02:14:11;;;;;;;8.70;1.73;;;6.20;75.80;;;;;;5157657;27;20070;-71
2021/04/25 02:16:37;;;;;;;8.77;1.70;;;6.20;75.20;;;;;;5156978;27;20043;-71
2021/04/25 02:19:03;;;;;;;8.15;2.20;;;6.20;75.50;;;;;;5157629;27;20424;-71
2021/04/25 02:21:29;;;;;;;12.25;2.30;;;6.20;75.70;;;;;;5157538;27;20436;-70
2021/04/25 02:23:57;;;;;;;8.90;2.72;;;6.20;75.90;;;;;;5157224;27;20031;-71
2021/04/25 02:26:23;;;;;;;9.77;1.83;;;6.20;75.60;;;;;;5156627;27;20039;-71
2021/04/25 02:28:48;;;;;;;6.30;1.40;;;6.10;75.60;;;;;;5157173;27;20531;-70
2021/04/25 02:31:14;;;;;;;15.48;2.28;;;6.20;75.30;;;;;;5157554;27;20042;-71
2021/04/25 02:33:40;;;;;;;7.10;2.35;;;6.10;74.80;;;;;;5157193;27;20542;-70
2021/04/25 02:36:06;;;;;;;9.05;2.50;;;6.10;74.70;;;;;;5156788;27;20390;-71
2021/04/25 02:38:32;;;;;;;11.15;1.55;;;6.20;74.90;;;;;;5157520;27;20167;-70
2021/04/25 02:40:58;;;;;;;5.85;1.98;;;6.20;74.00;;;;;;5156821;27;20031;-71
2021/04/25 02:43:24;;;;;;;6.45;1.73;;;6.20;74.10;;;;;;5156909;27;20034;-70
2021/04/25 02:45:50;;;;;;;5.95;1.65;;;6.10;73.50;;;;;;5156269;27;20494;-70
2021/04/25 02:48:16;;;;;;;6.22;1.70;;;6.20;73.80;;;;;;5156398;27;20039;-70
2021/04/25 02:50:43;;;;;;;12.98;1.63;;;6.20;74.50;;;;;;5157146;27;20042;-70
2021/04/25 02:53:10;;;;;;;8.98;1.95;;;6.10;74.00;;;;;;5157120;27;20117;-70
2021/04/25 02:55:37;;;;;;;13.02;1.85;;;6.10;74.30;;;;;;5156502;27;20038;-70
2021/04/25 02:58:04;;;;;;;4.15;1.38;;;6.10;74.40;;;;;;5156817;27;20047;-70
2021/04/25 03:00:30;;;;;;;9.60;2.13;;;6.10;74.90;;;;;;5156623;27;20034;-70
2021/04/25 03:02:57;;;;;;;4.85;1.60;;;6.00;74.90;;;;;;5156790;27;20069;-70
2021/04/25 03:05:25;;;;;;;5.15;1.65;;;6.10;75.40;;;;;;5156273;27;20043;-70
2021/04/25 03:07:51;;;;;;;8.18;1.70;;;6.10;75.00;;;;;;5156327;27;20039;-70
2021/04/25 03:10:18;;;;;;;9.35;2.15;;;6.00;74.90;;;;;;5156291;27;20035;-70
2021/04/25 03:12:45;;;;;;;4.60;1.70;;;6.10;75.20;;;;;;5156116;27;20109;-70
2021/04/25 03:15:12;;;;;;;8.40;1.67;;;6.00;75.00;;;;;;5155994;27;20031;-71
2021/04/25 03:17:38;;;;;;;6.03;1.30;;;6.00;75.30;;;;;;5155962;27;20071;-70
2021/04/25 03:20:06;;;;;;;7.22;1.65;;;6.10;74.80;;;;;;5156912;27;20129;-70
2021/04/25 03:22:33;;;;;;;5.65;1.58;;;6.10;74.30;;;;;;5156597;27;20041;-71
2021/04/25 03:24:59;;;;;;;7.20;1.58;;;6.10;74.50;;;;;;5156048;27;20060;-71
2021/04/25 03:27:24;;;;;;;3.63;1.42;;;6.10;74.30;;;;;;5155958;27;20367;-70
2021/04/25 03:29:50;;;;;;;8.68;1.60;;;6.10;74.10;;;;;;5156459;27;20042;-71
2021/04/25 03:32:16;;;;;;;8.88;1.98;;;6.10;74.10;;;;;;5155761;27;20383;-70
2021/04/25 03:34:42;;;;;;;5.65;1.85;;;6.10;74.30;;;;;;5155760;27;20496;-71
2021/04/25 03:37:08;;;;;;;7.43;1.92;;;6.10;74.20;;;;;;5155617;27;20077;-70
2021/04/25 03:39:34;;;;;;;8.38;1.67;;;6.10;74.70;;;;;;5156150;27;20133;-70
2021/04/25 03:42:00;;;;;;;10.05;1.65;;;6.00;74.80;;;;;;5155852;27;20478;-70
2021/04/25 03:44:26;;;;;;;10.25;2.03;;;6.00;75.10;;;;;;5155276;27;20043;-70
2021/04/25 03:46:52;;;;;;;6.65;1.85;;;6.00;75.30;;;;;;5155322;27;20080;-70
2021/04/25 03:49:21;;;;;;;7.30;1.50;;;6.10;75.40;;;;;;5156049;27;20558;-70
2021/04/25 03:51:48;;;;;;;9.73;1.85;;;6.10;75.60;;;;;;5156032;27;20117;-70
2021/04/25 03:54:14;;;;;;;8.23;1.52;;;6.10;76.10;;;;;;5155541;27;20039;-70
2021/04/25 03:56:40;;;;;;;5.78;1.80;;;6.10;75.90;;;;;;5154945;27;20051;-70
2021/04/25 03:59:06;;;;;;;8.77;1.90;;;6.10;75.90;;;;;;5156109;27;20536;-70
2021/04/25 04:01:32;;;;;;;10.23;2.17;;;6.10;75.90;;;;;;5155467;27;20089;-70
2021/04/25 04:03:57;;;;;;;6.97;1.77;;;6.10;75.50;;;;;;5155086;27;20083;-70
2021/04/25 04:06:23;;;;;;;5.50;1.48;;;6.00;75.40;;;;;;5154882;27;20050;-70
2021/04/25 04:08:49;;;;;;;14.05;2.10;;;6.10;75.60;;;;;;5155067;27;20418;-70
2021/04/25 04:11:15;;;;;;;6.65;1.95;;;6.10;75.30;;;;;;5155093;27;20042;-70
2021/04/25 04:13:41;;;;;;;8.82;1.83;;;6.10;75.40;;;;;;5155322;27;20053;-70
2021/04/25 04:16:07;;;;;;;7.93;2.10;;;6.10;75.50;;;;;;5145836;27;20037;-70
2021/04/25 04:18:32;;;;;;;12.68;2.08;;;6.10;75.60;;;;;;5134257;27;20114;-70
2021/04/25 04:20:58;;;;;;;9.23;1.60;;;6.10;75.50;;;;;;5134261;27;20035;-70
2021/04/25 04:23:24;;;;;;;9.50;2.13;;;6.10;75.70;;;;;;5134173;27;20035;-70
2021/04/25 04:25:49;;;;;;;12.85;2.00;;;6.10;75.30;;;;;;5133884;27;20384;-70
2021/04/25 04:28:15;;;;;;;9.43;2.20;;;6.10;75.50;;;;;;5134132;27;20475;-70
2021/04/25 04:30:41;;;;;;;7.93;1.83;;;6.10;75.40;;;;;;5137211;27;20160;-70
2021/04/25 04:33:07;;;;;;;8.02;1.90;;;6.10;74.70;;;;;;5141714;27;20431;-70
2021/04/25 04:35:33;;;;;;;10.25;1.70;;;6.10;75.10;;;;;;5139799;27;20411;-70
2021/04/25 04:37:58;;;;;;;8.52;2.25;;;6.10;75.40;;;;;;5140969;27;20039;-70
2021/04/25 04:40:24;;;;;;;8.80;1.80;;;6.10;75.00;;;;;;5141379;27;20046;-70
2021/04/25 04:42:50;;;;;;;8.98;2.08;;;6.10;74.60;;;;;;5140917;27;20092;-70
2021/04/25 04:45:16;;;;;;;10.07;1.80;;;6.10;74.40;;;;;;5140899;27;20031;-70
2021/04/25 04:47:47;;;;;;;13.05;3.63;;;6.10;74.70;;;;;;5140638;27;20047;-70
2021/04/25 04:50:15;;;;;;;5.00;1.52;;;6.20;74.80;;;;;;5140870;27;20375;-70
2021/04/25 04:52:41;;;;;;;7.05;2.03;;;6.20;74.80;;;;;;5141123;27;20039;-70
2021/04/25 04:55:08;;;;;;;5.82;1.77;;;6.30;74.80;;;;;;5140598;27;20066;-70
2021/04/25 04:57:34;;;;;;;8.75;2.13;;;6.20;74.50;;;;;;5141147;27;20035;-70
2021/04/25 04:59:59;;;;;;;10.77;2.00;;;6.20;74.80;;;;;;5140872;27;20038;-70
2021/04/25 05:02:25;;;;;;;4.35;2.00;;;6.20;75.10;;;;;;5141467;27;20040;-70
2021/04/25 05:04:51;;;;;;;5.22;2.08;;;6.30;75.60;;;;;;5140670;27;20038;-70
2021/04/25 05:07:17;;;;;;;7.93;1.60;;;6.20;75.50;;;;;;5140416;27;20130;-70
2021/04/25 05:09:43;;;;;;;6.03;1.52;;;6.20;75.60;;;;;;5141000;27;20119;-70
2021/04/25 05:12:09;;;;;;;17.08;4.32;;;6.20;75.60;;;;;;5141224;27;20471;-70
2021/04/25 05:14:35;;;;;;;6.45;1.98;;;6.30;76.00;;;;;;5141010;27;20383;-70
2021/04/25 05:17:00;;;;;;;9.65;1.98;;;6.30;76.30;;;;;;5141286;27;20054;-70
2021/04/25 05:19:26;;;;;;;10.82;3.03;;;6.30;76.00;;;;;;5140774;27;20404;-70
2021/04/25 05:21:52;;;;;;;9.40;2.10;;;6.30;76.10;;;;;;5140616;27;20047;-70
2021/04/25 05:24:18;;;;;;;10.07;2.28;;;6.30;76.30;;;;;;5141201;27;20114;-70
2021/04/25 05:26:43;;;;;;;8.60;2.70;;;6.30;76.50;;;;;;5140326;27;20039;-70
2021/04/25 05:29:09;;;;;;;8.00;2.15;;;6.30;76.30;;;;;;5140732;27;20510;-70
2021/04/25 05:31:35;;;;;;;7.15;2.10;;;6.40;76.50;;;;;;5141115;27;20035;-70
2021/04/25 05:34:01;;;;;;;12.77;2.90;;;6.30;76.70;;;;;;5140598;27;20041;-70
2021/04/25 05:36:27;;;;;;;9.25;1.98;;;6.30;76.90;;;;;;5140019;27;20493;-71
2021/04/25 05:38:52;;;;;;;15.90;2.20;;;6.40;76.70;;;;;;5140839;27;20110;-70
2021/04/25 05:41:18;;;;;;;6.45;2.08;;;6.40;76.30;;;;;;5140119;27;20453;-70
2021/04/25 05:43:46;;;;;;;9.00;1.98;;;6.40;76.10;;;;;;5136436;27;20035;-70
2021/04/25 05:46:13;;;;;;;6.20;1.90;;;6.40;75.90;;;;;;5136844;27;20091;-70
2021/04/25 05:48:40;;;;;;;9.05;1.75;;;6.40;75.40;;;;;;5137054;27;20046;-70
2021/04/25 05:51:05;;;;;;;10.20;1.77;;;6.40;74.70;;;;;;5137106;27;20031;-70
2021/04/25 05:53:31;;;;;;;7.90;2.00;;;6.40;74.60;;;;;;5137446;27;20389;-70
2021/04/25 05:55:57;;;;;;;7.63;1.70;;;6.40;74.40;;;;;;5137249;27;20035;-70
2021/04/25 05:58:22;;;;;;;7.18;1.58;;;6.50;74.10;;;;;;5136451;27;20102;-70
2021/04/25 06:00:48;;;;;;;9.50;2.08;;;6.50;73.90;;;;;;5136805;27;20410;-69
2021/04/25 06:03:14;;;;;;;6.47;2.22;;;6.50;74.40;;;;;;5136939;27;20040;-70
2021/04/25 06:05:39;;;;;;;6.18;1.70;;;6.60;74.10;;;;;;5136409;27;20539;-70
2021/04/25 06:08:05;;;;;;;9.02;1.75;;;6.60;74.00;;;;;;5135244;27;20402;-70
2021/04/25 06:10:31;;;;;;;7.13;1.60;;;6.60;74.10;;;;;;5137729;27;20042;-70
2021/04/25 06:12:57;;;;;;;7.05;1.58;;;6.60;74.10;;;;;;5137215;27;20069;-70
2021/04/25 06:15:24;;;;;;;11.55;2.03;;;6.70;74.10;;;;;;5136436;27;20175;-70
2021/04/25 06:17:50;;;;;;;8.32;1.63;;;6.70;73.70;;;;;;5136564;27;20516;-70
2021/04/25 06:20:17;;;;;;;9.15;1.60;;;6.70;74.20;;;;;;5136242;27;20035;-70
2021/04/25 06:22:44;;;;;;;7.22;1.63;;;6.80;74.20;;;;;;5136220;27;20036;-70
2021/04/25 06:25:11;;;;;;;7.32;2.70;;;6.80;73.10;;;;;;5136245;27;20039;-70
2021/04/25 06:27:37;;;;;;;9.63;2.13;;;6.80;72.40;;;;;;5135981;27;20111;-70
2021/04/25 06:30:04;;;;;;;7.80;1.80;;;6.90;72.70;;;;;;5137016;27;20467;-70
2021/04/25 06:32:30;;;;;;;6.93;1.40;;;6.90;72.60;;;;;;5136786;27;20400;-70
2021/04/25 06:34:55;;;;;;;9.07;1.75;;;7.00;73.20;;;;;;5135959;27;20035;-69
2021/04/25 06:37:21;;;;;;;7.78;2.20;;;7.00;73.00;;;;;;5136476;27;20063;-70
2021/04/25 06:39:47;;;;;;;7.55;1.80;;;7.10;73.00;;;;;;5136608;27;20046;-70
2021/04/25 06:42:13;;;;;;;6.40;1.42;;;7.20;72.90;;;;;;5136128;27;20039;-70
2021/04/25 06:44:38;;;;;;;9.43;1.58;;;7.10;72.60;;;;;;5136445;27;20042;-70
2021/04/25 06:47:04;;;;;;;8.57;2.13;;;7.10;72.80;;;;;;5135987;27;20075;-70
2021/04/25 06:49:29;;;;;;;9.85;2.17;;;7.20;73.10;;;;;;5136036;27;20050;-70
2021/04/25 06:51:55;;;;;;;8.43;1.67;;;7.10;71.50;;;;;;5135758;27;20038;-70
2021/04/25 06:54:23;;;;;;;9.18;2.45;;;7.00;71.50;;;;;;5135354;27;20061;-69
2021/04/25 06:56:48;;;;;;;7.65;1.80;;;7.00;71.90;;;;;;5135829;27;20083;-70
2021/04/25 06:59:14;;;;;;;6.82;2.20;;;7.00;72.30;;;;;;5135792;27;20050;-70
2021/04/25 07:01:40;;;;;;;7.55;1.70;;;7.00;72.60;;;;;;5135731;27;20379;-70
2021/04/25 07:04:06;;;;;;;8.57;1.33;;;7.00;72.80;;;;;;5136029;27;20057;-69
2021/04/25 07:06:31;;;;;;;7.45;1.50;;;7.00;72.70;;;;;;5135563;27;20046;-70
2021/04/25 07:08:58;;;;;;;7.57;1.83;;;7.10;72.80;;;;;;5135297;27;20035;-70
2021/04/25 07:11:23;;;;;;;10.73;1.80;;;7.10;73.20;;;;;;5135985;27;20486;-70
2021/04/25 07:13:49;;;;;;;4.28;1.70;;;7.10;72.40;;;;;;5135531;27;20117;-70
2021/04/25 07:16:15;;;;;;;6.25;2.78;;;7.10;72.30;;;;;;5134838;27;20532;-70
2021/04/25 07:18:40;;;;;;;11.93;2.00;;;7.10;72.20;;;;;;5135570;27;20053;-70
2021/04/25 07:21:06;;;;;;;9.75;1.80;;;7.10;71.80;;;;;;5135144;27;20031;-70
2021/04/25 07:23:32;;;;;;;6.72;1.70;;;7.10;71.10;;;;;;5135246;27;20147;-70
2021/04/25 07:25:57;;;;;;;7.22;1.75;;;7.10;70.80;;;;;;5134747;27;20031;-70
2021/04/25 07:28:24;;;;;;;10.82;2.67;;;7.10;71.00;;;;;;5135799;27;20043;-70
2021/04/25 07:30:51;;;;;;;10.45;2.45;;;7.20;70.90;;;;;;5135271;27;20039;-70
2021/04/25 07:33:18;;;;;;;10.70;1.95;;;7.30;71.10;;;;;;5134737;27;20390;-71
2021/04/25 07:35:44;;;;;;;6.32;2.22;;;7.20;70.90;;;;;;5133615;27;20479;-71
2021/04/25 07:38:10;;;;;;;5.45;1.15;;;7.30;70.80;;;;;;5134844;27;20045;-71
2021/04/25 07:40:38;;;;;;;5.88;1.45;;;7.40;70.00;;;;;;5134828;27;20039;-71
2021/04/25 07:43:04;;;;;;;8.30;1.42;;;7.50;69.80;;;;;;5135164;27;20058;-71
2021/04/25 07:45:30;;;;;;;4.80;1.30;;;7.50;69.70;;;;;;5134830;27;20485;-69
2021/04/25 07:47:56;;;;;;;13.88;2.15;;;7.50;69.40;;;;;;5134558;27;20039;-75
2021/04/25 07:50:22;;;;;;;5.20;1.20;;;7.60;69.00;;;;;;5135279;27;20453;-72
2021/04/25 07:52:48;;;;;;;9.23;1.75;;;7.60;68.50;;;;;;5135031;27;20035;-71
2021/04/25 07:55:14;;;;;;;6.65;1.90;;;7.50;68.00;;;;;;5134710;27;20046;-71
2021/04/25 07:57:40;;;;;;;5.20;1.40;;;7.50;68.00;;;;;;5134689;27;20039;-71
2021/04/25 08:00:11;;;;;;;10.30;2.03;;;7.50;68.50;;;;;;5134810;27;20035;-71
2021/04/25 08:02:37;;;;;;;16.63;2.17;;;7.40;69.10;;;;;;5134655;27;20031;-71
2021/04/25 08:05:05;;;;;;;8.18;1.83;;;7.50;69.30;;;;;;5133684;27;20046;-71
2021/04/25 08:07:31;;;;;;;4.70;1.23;;;7.40;69.30;;;;;;5134338;27;20047;-71
2021/04/25 08:09:57;;;;;;;5.20;1.20;;;7.60;68.90;;;;;;5135172;27;20036;-72
2021/04/25 08:12:22;;;;;;;4.63;1.30;;;7.60;68.60;;;;;;5134634;27;20032;-72
2021/04/25 08:14:48;;;;;;;7.22;1.50;;;7.50;68.60;;;;;;5134294;27;20059;-72
2021/04/25 08:17:14;;;;;;;8.10;1.70;;;7.60;68.70;;;;;;5134232;27;20133;-73
2021/04/25 08:19:40;;;;;;;10.75;1.58;;;7.60;69.50;;;;;;5134771;27;20035;-72
2021/04/25 08:22:07;;;;;;;5.82;1.25;;;7.60;69.40;;;;;;5134207;27;20484;-71
2021/04/25 08:24:33;;;;;;;6.43;1.95;;;7.60;69.40;;;;;;5134573;27;20387;-72
2021/04/25 08:26:59;;;;;;;6.55;2.05;;;7.60;69.70;;;;;;5134266;27;20043;-71
2021/04/25 08:29:25;;;;;;;5.32;1.35;;;7.60;69.60;;;;;;5134438;27;20043;-71
2021/04/25 08:31:51;;;;;;;9.80;1.67;;;7.60;69.60;;;;;;5134560;27;20035;-71
2021/04/25 08:34:17;;;;;;;8.25;1.80;;;7.50;69.70;;;;;;5134604;27;20059;-73
2021/04/25 08:36:42;;;;;;;13.23;3.10;;;7.60;69.90;;;;;;5133872;27;20110;-71
2021/04/25 08:39:08;;;;;;;5.75;1.83;;;7.60;69.50;;;;;;5134099;28;20497;-71
2021/04/25 08:41:34;;;;;;;19.85;2.78;;;7.60;69.70;;;;;;5134263;27;20031;-71
2021/04/25 08:44:05;;;;;;;7.43;1.63;;;7.50;69.10;;;;;;5134702;27;20035;-72
2021/04/25 08:46:31;;;;;;;7.03;1.23;;;7.70;69.50;;;;;;5133922;27;20066;-72
2021/04/25 08:48:57;;;;;;;11.00;2.60;;;7.60;69.20;;;;;;5134465;27;20049;-71
2021/04/25 08:51:23;;;;;;;11.05;2.08;;;7.60;69.50;;;;;;5133975;27;20437;-70
2021/04/25 08:53:50;;;;;;;6.60;1.88;;;7.80;69.50;;;;;;5134362;27;20039;-71
2021/04/25 08:56:18;;;;;;;9.98;1.50;;;7.80;68.40;;;;;;5133679;27;20103;-71
2021/04/25 08:58:44;;;;;;;8.73;1.65;;;7.80;68.80;;;;;;5133771;27;20084;-69
2021/04/25 09:01:10;;;;;;;5.85;1.27;;;7.80;68.70;;;;;;5132887;27;20035;-70
2021/04/25 09:03:36;;;;;;;6.72;1.88;;;7.80;68.70;;;;;;5134458;27;20043;-71
2021/04/25 09:06:07;;;;;;;8.85;1.67;;;7.90;68.90;;;;;;5133676;27;20478;-71
2021/04/25 09:08:45;;;;;;;6.88;1.75;;;7.90;68.40;;;;;;5133984;27;20035;-70
2021/04/25 09:11:33;;;;;;;10.15;1.67;;;8.00;67.50;;;;;;5133947;27;20035;-71
2021/04/25 09:14:21;;;;;;;7.20;2.05;;;7.90;67.40;;;;;;5133885;27;20043;-71
2021/04/25 09:16:53;;;;;;;6.35;1.92;;;7.90;67.40;;;;;;5135314;27;20042;-71
2021/04/25 09:19:19;;;;;;;8.20;1.65;;;8.00;67.50;;;;;;5137745;27;20035;-71
2021/04/25 09:22:00;;;;;;;8.77;2.38;;;8.00;67.90;;;;;;5137943;27;20042;-72
2021/04/25 09:24:28;;;;;;;5.32;1.80;;;8.00;67.80;;;;;;5137725;27;20039;-70
2021/04/25 09:26:55;;;;;;;12.05;1.63;;;7.90;67.80;;;;;;5137517;27;20035;-71
2021/04/25 09:29:22;;;;;;;14.07;2.65;;;8.00;68.30;;;;;;5136322;27;20171;-71
2021/04/25 09:31:51;;;;;;;9.93;1.95;;;8.20;68.30;;;;;;5137577;27;20471;-70
2021/04/25 09:34:28;;;;;;;9.88;2.10;;;8.10;67.70;;;;;;5137579;27;20535;-71
2021/04/25 09:36:55;;;;;;;9.15;1.88;;;8.10;67.10;;;;;;5137254;27;20034;-71
2021/04/25 09:39:23;;;;;;;8.32;1.67;;;7.90;67.10;;;;;;5137826;27;20035;-71
2021/04/25 09:41:49;;;;;;;11.75;2.03;;;8.10;67.60;;;;;;5137157;27;20678;-71
2021/04/25 09:44:34;;;;;;;9.82;1.58;;;8.10;67.60;;;;;;5137191;27;20039;-71
2021/04/25 09:47:03;;;;;;;7.78;1.77;;;8.10;67.00;;;;;;5137215;27;20042;-71
2021/04/25 09:49:49;;;;;;;10.93;2.70;;;8.20;67.50;;;;;;5137713;27;20039;-71
2021/04/25 09:52:34;;;;;;;10.13;2.10;;;8.20;67.00;;;;;;5137087;27;20467;-71
2021/04/25 09:55:34;;;;;;;15.75;3.92;;;8.20;66.00;;;;;;5136862;27;20035;-71
2021/04/25 09:58:05;;;;;;;22.90;7.20;;;8.40;66.20;;;;;;5114136;27;20047;-71
2021/04/25 10:00:43;;;;;;;6.72;1.48;;;8.60;66.00;;;;;;5136851;27;20039;-71
2021/04/25 10:03:10;;;;;;;12.65;2.92;;;8.70;64.20;;;;;;5136240;27;20056;-69
2021/04/25 10:05:37;;;;;;;10.25;3.00;;;8.80;63.90;;;;;;5136679;27;20164;-71
2021/04/25 10:08:03;;;;;;;12.65;2.35;;;9.10;63.90;;;;;;5136525;27;20039;-71
2021/04/25 10:10:31;;;;;;;7.15;2.10;;;9.30;63.80;;;;;;5136823;27;20440;-71
2021/04/25 10:12:58;;;;;;;6.00;2.13;;;9.30;62.90;;;;;;5136662;27;20035;-70
2021/04/25 10:15:24;;;;;;;5.28;1.50;;;9.20;62.80;;;;;;5136600;27;20111;-71
2021/04/25 10:17:54;;;;;;;7.05;1.88;;;9.20;62.50;;;;;;5136440;27;20449;-71
2021/04/25 10:20:22;;;;;;;5.18;1.40;;;9.40;63.30;;;;;;5135588;27;20035;-71
2021/04/25 10:22:49;;;;;;;7.05;1.50;;;9.40;63.10;;;;;;5136430;27;20043;-72
2021/04/25 10:25:30;;;;;;;8.95;2.55;;;9.50;62.00;;;;;;5136546;27;20490;-72
2021/04/25 10:28:02;;;;;;;6.53;1.50;;;9.70;63.50;;;;;;5135564;27;20088;-72
2021/04/25 10:30:36;;;;;;;11.05;3.95;;;9.80;64.00;;;;;;5136582;27;20049;-71
2021/04/25 10:33:02;;;;;;;16.50;5.53;;;9.80;63.40;;;;;;5136274;27;20046;-71
2021/04/25 10:35:33;;;;;;;7.50;2.05;;;9.70;63.10;;;;;;5136325;27;20054;-71
2021/04/25 10:38:00;;;;;;;7.85;1.58;;;9.50;62.10;;;;;;5136004;27;20039;-71
2021/04/25 10:40:35;;;;;;;11.70;3.53;;;9.30;63.00;;;;;;5136023;27;20039;-71
2021/04/25 10:43:04;;;;;;;9.50;2.30;;;9.20;64.00;;;;;;5136407;27;20083;-71
2021/04/25 10:45:54;;;;;;;8.02;2.08;;;9.40;65.00;;;;;;5135927;27;20132;-70
2021/04/25 10:48:24;;;;;;;6.22;1.70;;;9.40;65.80;;;;;;5135555;27;20539;-70
2021/04/25 10:50:57;;;;;;;10.27;3.53;;;9.30;65.70;;;;;;5135892;27;20035;-71
2021/04/25 10:53:28;;;;;;;6.60;1.90;;;9.20;66.10;;;;;;5136215;27;20035;-71
2021/04/25 10:56:20;;;;;;;14.68;3.05;;;9.20;66.40;;;;;;5135477;27;20106;-71
2021/04/25 10:58:47;;;;;;;12.30;3.42;;;9.30;67.00;;;;;;5135716;27;20035;-71
2021/04/25 11:01:41;;;;;;;12.60;2.65;;;9.20;67.10;;;;;;5135700;27;20031;-71
2021/04/25 11:04:07;;;;;;;14.30;2.00;;;9.30;67.80;;;;;;5136113;27;20035;-71
2021/04/25 11:06:33;;;;;;;7.13;1.75;;;9.40;64.80;;;;;;5135650;27;20031;-70
2021/04/25 11:08:59;;;;;;;8.80;1.80;;;9.50;64.60;;;;;;5135960;27;20039;-71
2021/04/25 11:11:36;;;;;;;9.85;2.30;;;9.50;64.40;;;;;;5135424;27;20035;-71
2021/04/25 11:14:04;;;;;;;13.18;2.85;;;9.70;64.20;;;;;;5135468;27;20042;-70
2021/04/25 11:16:31;;;;;;;9.90;2.42;;;10.00;64.20;;;;;;5135587;27;20067;-71
2021/04/25 11:19:05;;;;;;;6.82;1.30;;;10.30;62.90;;;;;;5136212;27;20039;-71
2021/04/25 11:21:38;;;;;;;5.28;1.75;;;10.40;62.00;;;;;;5135461;27;20039;-71
2021/04/25 11:24:07;;;;;;;5.53;1.70;;;10.40;61.10;;;;;;5135539;27;20069;-71
2021/04/25 11:26:44;;;;;;;7.10;2.33;;;10.30;62.00;;;;;;5134916;27;20084;-71
2021/04/25 11:29:12;;;;;;;9.73;2.40;;;10.30;61.80;;;;;;5135270;27;20429;-71
2021/04/25 11:31:47;;;;;;;8.18;1.88;;;9.90;62.20;;;;;;5135279;27;20047;-71
2021/04/25 11:34:34;;;;;;;4.32;1.67;;;9.80;62.50;;;;;;5135379;27;20035;-71
2021/04/25 11:37:07;;;;;;;8.73;1.60;;;9.70;62.70;;;;;;5134056;27;20043;-71
2021/04/25 11:39:45;;;;;;;7.32;1.83;;;9.70;61.90;;;;;;5133092;27;20062;-70
2021/04/25 11:42:24;;;;;;;5.32;1.25;;;9.90;61.40;;;;;;5134714;27;20050;-71
2021/04/25 11:44:50;;;;;;;6.20;1.35;;;10.10;60.50;;;;;;5134585;27;20045;-71
2021/04/25 11:47:17;;;;;;;4.07;1.70;;;10.40;58.70;;;;;;5135054;27;20110;-70
2021/04/25 11:49:45;;;;;;;6.10;1.40;;;10.60;54.70;;;;;;5135199;27;20039;-70
2021/04/25 11:52:28;;;;;;;7.82;1.15;;;10.60;56.90;;;;;;5135030;27;20039;-71
2021/04/25 11:55:08;;;;;;;16.83;2.63;;;10.40;56.70;;;;;;5134841;27;20031;-71
2021/04/25 11:57:36;;;;;;;8.45;2.20;;;10.30;56.60;;;;;;5134599;27;20084;-70
2021/04/25 12:00:14;;;;;;;12.95;2.53;;;10.40;61.30;;;;;;5134479;27;20062;-70
2021/04/25 12:02:55;;;;;;;8.73;2.03;;;10.40;61.00;;;;;;5135065;27;20382;-71
2021/04/25 12:05:28;;;;;;;5.57;1.65;;;10.50;62.30;;;;;;5134685;27;20035;-71
2021/04/25 12:08:01;;;;;;;8.65;1.83;;;10.20;61.90;;;;;;5133555;27;20035;-70
2021/04/25 12:10:32;;;;;;;9.10;2.10;;;10.10;62.20;;;;;;5134855;27;20096;-71
2021/04/25 12:13:17;;;;;;;5.93;1.92;;;10.30;63.00;;;;;;5134927;27;20042;-72
2021/04/25 12:15:50;;;;;;;11.23;1.73;;;10.20;62.90;;;;;;5134450;27;20067;-72
2021/04/25 12:18:19;;;;;;;6.70;1.58;;;10.30;63.30;;;;;;5134989;27;20118;-72
2021/04/25 12:20:47;;;;;;;9.07;2.33;;;10.60;62.60;;;;;;5134588;27;20074;-72
2021/04/25 12:23:18;;;;;;;4.32;1.20;;;10.40;60.60;;;;;;5134608;27;20402;-72
2021/04/25 12:25:47;;;;;;;12.05;2.55;;;10.50;59.00;;;;;;5134156;27;20047;-72
2021/04/25 12:28:13;;;;;;;7.85;2.28;;;10.50;59.50;;;;;;5134120;27;20065;-72
2021/04/25 12:30:44;;;;;;;18.48;2.35;;;10.70;59.70;;;;;;5134512;27;20088;-72
2021/04/25 12:33:11;;;;;;;6.75;1.60;;;11.00;58.90;;;;;;5134492;27;20035;-72
2021/04/25 12:35:40;;;;;;;7.78;1.95;;;11.10;59.20;;;;;;5134251;27;20082;-71
2021/04/25 12:38:20;;;;;;;10.57;1.80;;;11.00;59.70;;;;;;5134863;27;20043;-72
2021/04/25 12:40:53;;;;;;;11.40;2.60;;;10.90;60.10;;;;;;5134065;27;20039;-72
2021/04/25 12:43:19;;;;;;;8.52;2.50;;;10.90;60.20;;;;;;5134313;27;20039;-72
2021/04/25 12:45:45;;;;;;;7.50;1.55;;;10.90;59.70;;;;;;5134298;27;20043;-72
2021/04/25 12:48:37;;;;;;;3.40;1.25;;;10.70;59.80;;;;;;5133855;27;20060;-72
2021/04/25 12:51:15;;;;;;;10.38;2.17;;;10.50;58.70;;;;;;5134991;27;20035;-72
2021/04/25 12:53:58;;;;;;;4.57;1.63;;;10.50;58.60;;;;;;5138381;27;20364;-72
2021/04/25 12:56:33;;;;;;;7.15;1.60;;;10.90;57.60;;;;;;5138132;27;20028;-72